< < Back
Terminal Aerodrome Forecast


Current Version              Previous Versions:   1  2  3  4  5  6  7  8  9  

Terminal Aerodrome Forecast

359
FTUS42 KGSP 302332
TAFHKY
TAF
KHKY 302332Z 0100/0124 24007KT P6SM -SHRA VCTS SCT060CB BKN120
     FM010100 24006KT P6SM BKN060
     FM010300 24005KT P6SM SCT060 SCT120
     FM011600 25006KT P6SM SCT250
     FM011700 25006KT P6SM SCT060
     FM012000 24007KT P6SM BKN060 PROB30 0120/0124 4SM TSRA
      BKN040CB=

Latest METAR

490
SAUS70 KWBC 010400 RRP
MTRHKY
METAR KHKY 010353Z AUTO 25004KT 10SM FEW120 20/17 A2997 RMK AO2 SLP125
T02000167


USA.gov is the U.S. government's official web portal to all federal, state and local government web resources and services.